sensor_id;sensor_type;location;lat;lon;timestamp;P1;durP1;ratioP1;P2;durP2;ratioP2
69256;SDS011;56376;53.356;-1.748;2023-06-26T00:01:32;4.20;;;2.00;;
69256;SDS011;56376;53.356;-1.748;2023-06-26T00:03:58;3.60;;;2.00;;
69256;SDS011;56376;53.356;-1.748;2023-06-26T00:06:24;3.38;;;1.90;;
69256;SDS011;56376;53.356;-1.748;2023-06-26T00:08:50;3.05;;;1.50;;
69256;SDS011;56376;53.356;-1.748;2023-06-26T00:11:19;3.08;;;1.75;;
69256;SDS011;56376;53.356;-1.748;2023-06-26T00:13:45;2.30;;;1.55;;
69256;SDS011;56376;53.356;-1.748;2023-06-26T00:16:11;4.20;;;1.70;;
69256;SDS011;56376;53.356;-1.748;2023-06-26T00:18:36;2.13;;;1.45;;
69256;SDS011;56376;53.356;-1.748;2023-06-26T00:21:02;2.72;;;1.67;;
69256;SDS011;56376;53.356;-1.748;2023-06-26T00:23:27;3.58;;;1.40;;
69256;SDS011;56376;53.356;-1.748;2023-06-26T00:25:53;2.03;;;1.52;;
69256;SDS011;56376;53.356;-1.748;2023-06-26T00:28:18;1.42;;;1.30;;
69256;SDS011;56376;53.356;-1.748;2023-06-26T00:30:44;4.47;;;1.70;;
69256;SDS011;56376;53.356;-1.748;2023-06-26T00:33:09;1.77;;;1.40;;
69256;SDS011;56376;53.356;-1.748;2023-06-26T00:35:35;3.67;;;1.77;;
69256;SDS011;56376;53.356;-1.748;2023-06-26T00:38:00;3.03;;;1.50;;
69256;SDS011;56376;53.356;-1.748;2023-06-26T00:40:26;2.47;;;1.58;;
69256;SDS011;56376;53.356;-1.748;2023-06-26T00:42:52;1.92;;;1.55;;
69256;SDS011;56376;53.356;-1.748;2023-06-26T00:45:18;3.28;;;1.50;;
69256;SDS011;56376;53.356;-1.748;2023-06-26T00:47:44;1.92;;;1.60;;
69256;SDS011;56376;53.356;-1.748;2023-06-26T00:50:09;3.30;;;1.35;;
69256;SDS011;56376;53.356;-1.748;2023-06-26T00:52:35;3.33;;;1.60;;
69256;SDS011;56376;53.356;-1.748;2023-06-26T00:55:01;1.35;;;1.13;;
69256;SDS011;56376;53.356;-1.748;2023-06-26T00:57:27;3.75;;;1.50;;
69256;SDS011;56376;53.356;-1.748;2023-06-26T00:59:52;3.20;;;1.30;;
69256;SDS011;56376;53.356;-1.748;2023-06-26T01:02:18;2.50;;;1.67;;
69256;SDS011;56376;53.356;-1.748;2023-06-26T01:04:48;3.42;;;1.33;;
69256;SDS011;56376;53.356;-1.748;2023-06-26T01:07:15;2.83;;;1.77;;
69256;SDS011;56376;53.356;-1.748;2023-06-26T01:09:41;2.85;;;1.60;;
69256;SDS011;56376;53.356;-1.748;2023-06-26T01:12:07;2.17;;;1.42;;
69256;SDS011;56376;53.356;-1.748;2023-06-26T01:14:33;1.85;;;1.40;;
69256;SDS011;56376;53.356;-1.748;2023-06-26T01:17:01;2.38;;;1.15;;
69256;SDS011;56376;53.356;-1.748;2023-06-26T01:19:27;6.60;;;1.65;;
69256;SDS011;56376;53.356;-1.748;2023-06-26T01:22:00;5.20;;;1.85;;
69256;SDS011;56376;53.356;-1.748;2023-06-26T01:24:27;5.00;;;2.28;;
69256;SDS011;56376;53.356;-1.748;2023-06-26T01:26:58;3.33;;;1.83;;
69256;SDS011;56376;53.356;-1.748;2023-06-26T01:29:25;4.65;;;1.80;;
69256;SDS011;56376;53.356;-1.748;2023-06-26T01:31:53;2.83;;;1.70;;
69256;SDS011;56376;53.356;-1.748;2023-06-26T01:34:19;1.60;;;1.35;;
69256;SDS011;56376;53.356;-1.748;2023-06-26T01:36:45;2.83;;;1.55;;
69256;SDS011;56376;53.356;-1.748;2023-06-26T01:39:15;4.22;;;1.80;;
69256;SDS011;56376;53.356;-1.748;2023-06-26T01:41:41;4.05;;;1.63;;
69256;SDS011;56376;53.356;-1.748;2023-06-26T01:49:25;2.53;;;1.42;;
69256;SDS011;56376;53.356;-1.748;2023-06-26T01:52:01;2.97;;;1.63;;
69256;SDS011;56376;53.356;-1.748;2023-06-26T01:54:35;2.38;;;1.50;;
69256;SDS011;56376;53.356;-1.748;2023-06-26T01:57:04;2.08;;;1.50;;
69256;SDS011;56376;53.356;-1.748;2023-06-26T01:59:31;2.70;;;2.22;;
69256;SDS011;56376;53.356;-1.748;2023-06-26T02:02:00;2.53;;;1.60;;
69256;SDS011;56376;53.356;-1.748;2023-06-26T02:04:26;2.95;;;1.83;;
69256;SDS011;56376;53.356;-1.748;2023-06-26T02:06:51;3.42;;;1.88;;
69256;SDS011;56376;53.356;-1.748;2023-06-26T02:09:17;3.88;;;1.77;;
69256;SDS011;56376;53.356;-1.748;2023-06-26T02:11:42;2.53;;;1.70;;
69256;SDS011;56376;53.356;-1.748;2023-06-26T02:14:08;3.20;;;1.70;;
69256;SDS011;56376;53.356;-1.748;2023-06-26T02:16:34;6.20;;;2.63;;
69256;SDS011;56376;53.356;-1.748;2023-06-26T02:18:59;3.42;;;2.20;;
69256;SDS011;56376;53.356;-1.748;2023-06-26T02:21:25;4.18;;;1.80;;
69256;SDS011;56376;53.356;-1.748;2023-06-26T02:23:50;3.05;;;1.85;;
69256;SDS011;56376;53.356;-1.748;2023-06-26T02:26:16;2.83;;;1.63;;
69256;SDS011;56376;53.356;-1.748;2023-06-26T02:28:41;1.95;;;1.55;;
69256;SDS011;56376;53.356;-1.748;2023-06-26T02:31:06;5.80;;;2.20;;
69256;SDS011;56376;53.356;-1.748;2023-06-26T02:33:32;2.50;;;1.70;;
69256;SDS011;56376;53.356;-1.748;2023-06-26T02:35:57;3.97;;;1.83;;
69256;SDS011;56376;53.356;-1.748;2023-06-26T02:38:22;3.85;;;1.55;;
69256;SDS011;56376;53.356;-1.748;2023-06-26T02:40:48;3.85;;;1.85;;
69256;SDS011;56376;53.356;-1.748;2023-06-26T02:43:13;2.10;;;1.85;;
69256;SDS011;56376;53.356;-1.748;2023-06-26T02:45:39;4.70;;;1.83;;
69256;SDS011;56376;53.356;-1.748;2023-06-26T02:48:04;2.08;;;1.42;;
69256;SDS011;56376;53.356;-1.748;2023-06-26T02:50:30;2.38;;;1.60;;
69256;SDS011;56376;53.356;-1.748;2023-06-26T02:52:55;2.33;;;1.40;;
69256;SDS011;56376;53.356;-1.748;2023-06-26T02:55:20;1.67;;;1.40;;
69256;SDS011;56376;53.356;-1.748;2023-06-26T02:57:46;2.45;;;1.48;;
69256;SDS011;56376;53.356;-1.748;2023-06-26T03:00:11;2.60;;;1.60;;
69256;SDS011;56376;53.356;-1.748;2023-06-26T03:02:38;2.25;;;1.50;;
69256;SDS011;56376;53.356;-1.748;2023-06-26T03:05:03;1.70;;;1.50;;
69256;SDS011;56376;53.356;-1.748;2023-06-26T03:07:29;1.67;;;1.50;;
69256;SDS011;56376;53.356;-1.748;2023-06-26T03:09:55;2.50;;;1.60;;
69256;SDS011;56376;53.356;-1.748;2023-06-26T03:12:20;2.55;;;1.50;;
69256;SDS011;56376;53.356;-1.748;2023-06-26T03:14:45;3.00;;;1.83;;
69256;SDS011;56376;53.356;-1.748;2023-06-26T03:17:11;3.35;;;2.00;;
69256;SDS011;56376;53.356;-1.748;2023-06-26T03:19:36;3.42;;;1.92;;
69256;SDS011;56376;53.356;-1.748;2023-06-26T03:22:01;2.22;;;1.67;;
69256;SDS011;56376;53.356;-1.748;2023-06-26T03:24:28;3.72;;;2.20;;
69256;SDS011;56376;53.356;-1.748;2023-06-26T03:26:54;2.17;;;1.95;;
69256;SDS011;56376;53.356;-1.748;2023-06-26T03:29:19;2.25;;;1.80;;
69256;SDS011;56376;53.356;-1.748;2023-06-26T03:31:45;2.15;;;1.80;;
69256;SDS011;56376;53.356;-1.748;2023-06-26T03:34:10;2.60;;;1.95;;
69256;SDS011;56376;53.356;-1.748;2023-06-26T03:36:35;2.58;;;2.10;;
69256;SDS011;56376;53.356;-1.748;2023-06-26T03:39:01;1.80;;;1.60;;
69256;SDS011;56376;53.356;-1.748;2023-06-26T03:41:26;5.25;;;2.33;;
69256;SDS011;56376;53.356;-1.748;2023-06-26T03:43:52;2.80;;;1.90;;
69256;SDS011;56376;53.356;-1.748;2023-06-26T03:46:17;2.00;;;1.60;;
69256;SDS011;56376;53.356;-1.748;2023-06-26T03:48:43;2.35;;;1.88;;
69256;SDS011;56376;53.356;-1.748;2023-06-26T03:51:08;2.65;;;1.77;;
69256;SDS011;56376;53.356;-1.748;2023-06-26T03:53:34;3.15;;;2.00;;
69256;SDS011;56376;53.356;-1.748;2023-06-26T03:55:59;2.80;;;1.90;;
69256;SDS011;56376;53.356;-1.748;2023-06-26T03:58:25;3.42;;;1.80;;
69256;SDS011;56376;53.356;-1.748;2023-06-26T04:00:50;2.88;;;1.75;;
69256;SDS011;56376;53.356;-1.748;2023-06-26T04:03:16;3.90;;;1.67;;
69256;SDS011;56376;53.356;-1.748;2023-06-26T04:05:41;3.92;;;2.13;;
69256;SDS011;56376;53.356;-1.748;2023-06-26T04:08:07;5.10;;;2.17;;
69256;SDS011;56376;53.356;-1.748;2023-06-26T04:10:33;4.07;;;2.40;;
69256;SDS011;56376;53.356;-1.748;2023-06-26T04:12:58;3.53;;;2.00;;
69256;SDS011;56376;53.356;-1.748;2023-06-26T04:15:24;5.53;;;2.50;;
69256;SDS011;56376;53.356;-1.748;2023-06-26T04:17:49;2.60;;;2.20;;
69256;SDS011;56376;53.356;-1.748;2023-06-26T04:20:15;2.47;;;1.90;;
69256;SDS011;56376;53.356;-1.748;2023-06-26T04:22:40;3.90;;;2.72;;
69256;SDS011;56376;53.356;-1.748;2023-06-26T04:25:05;3.83;;;2.25;;
69256;SDS011;56376;53.356;-1.748;2023-06-26T04:27:31;4.57;;;2.33;;
69256;SDS011;56376;53.356;-1.748;2023-06-26T04:29:57;3.38;;;2.20;;
69256;SDS011;56376;53.356;-1.748;2023-06-26T04:32:22;3.33;;;1.98;;
69256;SDS011;56376;53.356;-1.748;2023-06-26T04:34:48;3.22;;;1.90;;
69256;SDS011;56376;53.356;-1.748;2023-06-26T04:37:14;2.95;;;2.22;;
69256;SDS011;56376;53.356;-1.748;2023-06-26T04:39:42;3.63;;;2.17;;
69256;SDS011;56376;53.356;-1.748;2023-06-26T04:42:07;3.88;;;2.17;;
69256;SDS011;56376;53.356;-1.748;2023-06-26T04:44:34;4.97;;;2.47;;
69256;SDS011;56376;53.356;-1.748;2023-06-26T04:46:59;3.70;;;2.40;;
69256;SDS011;56376;53.356;-1.748;2023-06-26T04:49:25;4.07;;;2.47;;
69256;SDS011;56376;53.356;-1.748;2023-06-26T04:51:50;2.55;;;1.98;;
69256;SDS011;56376;53.356;-1.748;2023-06-26T04:54:16;2.63;;;2.00;;
69256;SDS011;56376;53.356;-1.748;2023-06-26T04:56:41;3.72;;;1.90;;
69256;SDS011;56376;53.356;-1.748;2023-06-26T04:59:08;2.30;;;2.10;;
69256;SDS011;56376;53.356;-1.748;2023-06-26T05:01:38;2.05;;;1.80;;
69256;SDS011;56376;53.356;-1.748;2023-06-26T05:04:04;3.08;;;2.20;;
69256;SDS011;56376;53.356;-1.748;2023-06-26T05:06:30;4.10;;;2.00;;
69256;SDS011;56376;53.356;-1.748;2023-06-26T05:08:56;4.85;;;2.28;;
69256;SDS011;56376;53.356;-1.748;2023-06-26T05:11:21;2.80;;;2.10;;
69256;SDS011;56376;53.356;-1.748;2023-06-26T05:13:47;3.90;;;2.20;;
69256;SDS011;56376;53.356;-1.748;2023-06-26T05:16:12;3.05;;;1.60;;
69256;SDS011;56376;53.356;-1.748;2023-06-26T05:18:37;2.53;;;1.80;;
69256;SDS011;56376;53.356;-1.748;2023-06-26T05:21:03;2.03;;;1.83;;
69256;SDS011;56376;53.356;-1.748;2023-06-26T05:23:32;2.08;;;1.88;;
69256;SDS011;56376;53.356;-1.748;2023-06-26T05:25:59;3.28;;;1.70;;
69256;SDS011;56376;53.356;-1.748;2023-06-26T05:28:28;2.60;;;1.52;;
69256;SDS011;56376;53.356;-1.748;2023-06-26T05:30:56;1.85;;;1.60;;
69256;SDS011;56376;53.356;-1.748;2023-06-26T05:33:23;2.45;;;2.00;;
69256;SDS011;56376;53.356;-1.748;2023-06-26T05:35:49;4.38;;;2.22;;
69256;SDS011;56376;53.356;-1.748;2023-06-26T05:38:17;2.65;;;1.90;;
69256;SDS011;56376;53.356;-1.748;2023-06-26T05:40:43;3.55;;;2.20;;
69256;SDS011;56376;53.356;-1.748;2023-06-26T05:43:09;4.15;;;2.00;;
69256;SDS011;56376;53.356;-1.748;2023-06-26T05:45:35;3.40;;;1.70;;
69256;SDS011;56376;53.356;-1.748;2023-06-26T05:48:00;3.08;;;1.73;;
69256;SDS011;56376;53.356;-1.748;2023-06-26T05:50:26;3.67;;;2.00;;
69256;SDS011;56376;53.356;-1.748;2023-06-26T05:52:53;3.60;;;1.90;;
69256;SDS011;56376;53.356;-1.748;2023-06-26T05:55:18;2.92;;;2.42;;
69256;SDS011;56376;53.356;-1.748;2023-06-26T05:57:45;4.78;;;2.05;;
69256;SDS011;56376;53.356;-1.748;2023-06-26T06:00:12;4.30;;;2.42;;
69256;SDS011;56376;53.356;-1.748;2023-06-26T06:02:38;4.47;;;1.90;;
69256;SDS011;56376;53.356;-1.748;2023-06-26T06:05:04;4.65;;;2.15;;
69256;SDS011;56376;53.356;-1.748;2023-06-26T06:07:33;4.63;;;2.42;;
69256;SDS011;56376;53.356;-1.748;2023-06-26T06:10:00;5.50;;;2.45;;
69256;SDS011;56376;53.356;-1.748;2023-06-26T06:12:26;6.18;;;2.67;;
69256;SDS011;56376;53.356;-1.748;2023-06-26T06:14:52;6.35;;;2.55;;
69256;SDS011;56376;53.356;-1.748;2023-06-26T06:17:18;7.93;;;2.92;;
69256;SDS011;56376;53.356;-1.748;2023-06-26T06:19:44;4.45;;;2.60;;
69256;SDS011;56376;53.356;-1.748;2023-06-26T06:22:10;4.43;;;2.35;;
69256;SDS011;56376;53.356;-1.748;2023-06-26T06:24:35;6.75;;;2.65;;
69256;SDS011;56376;53.356;-1.748;2023-06-26T06:27:01;5.63;;;2.83;;
69256;SDS011;56376;53.356;-1.748;2023-06-26T06:29:26;8.35;;;2.67;;
69256;SDS011;56376;53.356;-1.748;2023-06-26T06:31:51;5.63;;;2.40;;
69256;SDS011;56376;53.356;-1.748;2023-06-26T06:34:17;5.55;;;2.20;;
69256;SDS011;56376;53.356;-1.748;2023-06-26T06:36:42;6.80;;;2.38;;
69256;SDS011;56376;53.356;-1.748;2023-06-26T06:39:07;6.82;;;2.63;;
69256;SDS011;56376;53.356;-1.748;2023-06-26T06:41:33;7.40;;;2.70;;
69256;SDS011;56376;53.356;-1.748;2023-06-26T06:43:59;6.60;;;2.47;;
69256;SDS011;56376;53.356;-1.748;2023-06-26T06:46:24;8.32;;;2.92;;
69256;SDS011;56376;53.356;-1.748;2023-06-26T06:48:52;5.38;;;2.67;;
69256;SDS011;56376;53.356;-1.748;2023-06-26T06:51:17;7.05;;;2.63;;
69256;SDS011;56376;53.356;-1.748;2023-06-26T06:53:43;9.32;;;4.07;;
69256;SDS011;56376;53.356;-1.748;2023-06-26T06:56:08;4.95;;;2.60;;
69256;SDS011;56376;53.356;-1.748;2023-06-26T06:58:33;8.15;;;3.22;;
69256;SDS011;56376;53.356;-1.748;2023-06-26T07:01:00;5.15;;;2.42;;
69256;SDS011;56376;53.356;-1.748;2023-06-26T07:03:29;4.68;;;2.03;;
69256;SDS011;56376;53.356;-1.748;2023-06-26T07:05:55;5.88;;;2.83;;
69256;SDS011;56376;53.356;-1.748;2023-06-26T07:08:20;6.70;;;2.90;;
69256;SDS011;56376;53.356;-1.748;2023-06-26T07:10:46;4.10;;;2.00;;
69256;SDS011;56376;53.356;-1.748;2023-06-26T07:13:11;4.10;;;2.03;;
69256;SDS011;56376;53.356;-1.748;2023-06-26T07:15:37;3.15;;;1.70;;
69256;SDS011;56376;53.356;-1.748;2023-06-26T07:18:02;5.47;;;2.35;;
69256;SDS011;56376;53.356;-1.748;2023-06-26T07:20:27;3.22;;;1.60;;
69256;SDS011;56376;53.356;-1.748;2023-06-26T07:22:53;2.20;;;1.60;;
69256;SDS011;56376;53.356;-1.748;2023-06-26T07:25:18;2.75;;;1.80;;
69256;SDS011;56376;53.356;-1.748;2023-06-26T07:27:43;4.28;;;1.75;;
69256;SDS011;56376;53.356;-1.748;2023-06-26T07:30:10;3.40;;;1.90;;
69256;SDS011;56376;53.356;-1.748;2023-06-26T07:32:35;2.63;;;1.80;;
69256;SDS011;56376;53.356;-1.748;2023-06-26T07:35:02;4.15;;;1.98;;
69256;SDS011;56376;53.356;-1.748;2023-06-26T07:37:27;3.95;;;1.67;;
69256;SDS011;56376;53.356;-1.748;2023-06-26T07:39:52;3.45;;;2.00;;
69256;SDS011;56376;53.356;-1.748;2023-06-26T07:42:18;5.57;;;2.03;;
69256;SDS011;56376;53.356;-1.748;2023-06-26T07:44:44;2.78;;;1.90;;
69256;SDS011;56376;53.356;-1.748;2023-06-26T07:47:10;2.65;;;1.67;;
69256;SDS011;56376;53.356;-1.748;2023-06-26T07:49:35;3.33;;;1.67;;
69256;SDS011;56376;53.356;-1.748;2023-06-26T07:52:01;3.25;;;1.50;;
69256;SDS011;56376;53.356;-1.748;2023-06-26T07:54:28;4.30;;;2.05;;
69256;SDS011;56376;53.356;-1.748;2023-06-26T07:59:24;5.70;;;2.10;;
69256;SDS011;56376;53.356;-1.748;2023-06-26T08:01:51;5.20;;;2.30;;
69256;SDS011;56376;53.356;-1.748;2023-06-26T08:04:18;2.90;;;1.50;;
69256;SDS011;56376;53.356;-1.748;2023-06-26T08:06:45;4.80;;;1.80;;
69256;SDS011;56376;53.356;-1.748;2023-06-26T08:09:11;4.20;;;1.70;;
69256;SDS011;56376;53.356;-1.748;2023-06-26T08:11:37;4.13;;;1.83;;
69256;SDS011;56376;53.356;-1.748;2023-06-26T08:14:03;5.32;;;1.90;;
69256;SDS011;56376;53.356;-1.748;2023-06-26T08:16:28;4.13;;;1.70;;
69256;SDS011;56376;53.356;-1.748;2023-06-26T08:18:54;3.88;;;1.98;;
69256;SDS011;56376;53.356;-1.748;2023-06-26T08:21:19;4.57;;;1.70;;
69256;SDS011;56376;53.356;-1.748;2023-06-26T08:23:44;4.25;;;1.73;;
69256;SDS011;56376;53.356;-1.748;2023-06-26T08:26:10;3.78;;;1.90;;
69256;SDS011;56376;53.356;-1.748;2023-06-26T08:28:35;3.38;;;2.13;;
69256;SDS011;56376;53.356;-1.748;2023-06-26T08:31:01;3.83;;;1.88;;
69256;SDS011;56376;53.356;-1.748;2023-06-26T08:33:26;2.88;;;1.70;;
69256;SDS011;56376;53.356;-1.748;2023-06-26T08:35:51;2.40;;;1.60;;
69256;SDS011;56376;53.356;-1.748;2023-06-26T08:38:17;5.90;;;1.88;;
69256;SDS011;56376;53.356;-1.748;2023-06-26T08:40:43;3.45;;;1.80;;
69256;SDS011;56376;53.356;-1.748;2023-06-26T08:43:09;3.60;;;1.67;;
69256;SDS011;56376;53.356;-1.748;2023-06-26T08:45:34;3.67;;;1.52;;
69256;SDS011;56376;53.356;-1.748;2023-06-26T08:48:00;3.45;;;1.40;;
69256;SDS011;56376;53.356;-1.748;2023-06-26T08:50:30;4.50;;;1.50;;
69256;SDS011;56376;53.356;-1.748;2023-06-26T08:53:04;2.95;;;1.42;;
69256;SDS011;56376;53.356;-1.748;2023-06-26T08:55:36;3.92;;;1.65;;
69256;SDS011;56376;53.356;-1.748;2023-06-26T08:58:06;4.28;;;1.50;;
69256;SDS011;56376;53.356;-1.748;2023-06-26T09:00:31;4.03;;;1.40;;
69256;SDS011;56376;53.356;-1.748;2023-06-26T09:02:57;3.42;;;1.55;;
69256;SDS011;56376;53.356;-1.748;2023-06-26T09:05:24;4.57;;;1.52;;
69256;SDS011;56376;53.356;-1.748;2023-06-26T09:07:52;4.63;;;1.40;;
69256;SDS011;56376;53.356;-1.748;2023-06-26T09:10:20;3.33;;;1.50;;
69256;SDS011;56376;53.356;-1.748;2023-06-26T09:12:46;2.63;;;1.08;;
69256;SDS011;56376;53.356;-1.748;2023-06-26T09:15:14;3.20;;;1.60;;
69256;SDS011;56376;53.356;-1.748;2023-06-26T09:17:40;2.92;;;1.50;;
69256;SDS011;56376;53.356;-1.748;2023-06-26T09:20:07;3.88;;;1.48;;
69256;SDS011;56376;53.356;-1.748;2023-06-26T09:22:33;3.38;;;1.10;;
69256;SDS011;56376;53.356;-1.748;2023-06-26T09:25:03;2.72;;;1.27;;
69256;SDS011;56376;53.356;-1.748;2023-06-26T09:27:30;2.33;;;1.10;;
69256;SDS011;56376;53.356;-1.748;2023-06-26T09:29:56;3.13;;;1.10;;
69256;SDS011;56376;53.356;-1.748;2023-06-26T09:32:26;3.20;;;1.77;;
69256;SDS011;56376;53.356;-1.748;2023-06-26T09:34:53;2.33;;;1.38;;
69256;SDS011;56376;53.356;-1.748;2023-06-26T09:37:21;4.85;;;1.35;;
69256;SDS011;56376;53.356;-1.748;2023-06-26T09:39:46;3.40;;;1.42;;
69256;SDS011;56376;53.356;-1.748;2023-06-26T09:42:13;2.50;;;0.98;;
69256;SDS011;56376;53.356;-1.748;2023-06-26T09:44:45;2.95;;;1.20;;
69256;SDS011;56376;53.356;-1.748;2023-06-26T09:47:11;1.95;;;1.20;;
69256;SDS011;56376;53.356;-1.748;2023-06-26T09:49:40;2.80;;;1.30;;
69256;SDS011;56376;53.356;-1.748;2023-06-26T09:52:07;2.78;;;1.20;;
69256;SDS011;56376;53.356;-1.748;2023-06-26T09:54:33;3.80;;;1.30;;
69256;SDS011;56376;53.356;-1.748;2023-06-26T09:57:08;3.42;;;1.40;;
69256;SDS011;56376;53.356;-1.748;2023-06-26T09:59:34;3.83;;;1.55;;
69256;SDS011;56376;53.356;-1.748;2023-06-26T10:02:00;3.30;;;1.02;;
69256;SDS011;56376;53.356;-1.748;2023-06-26T10:04:26;3.03;;;1.30;;
69256;SDS011;56376;53.356;-1.748;2023-06-26T10:06:51;2.88;;;1.33;;
69256;SDS011;56376;53.356;-1.748;2023-06-26T10:09:23;3.55;;;1.58;;
69256;SDS011;56376;53.356;-1.748;2023-06-26T10:12:02;2.88;;;1.50;;
69256;SDS011;56376;53.356;-1.748;2023-06-26T10:14:33;3.47;;;1.95;;
69256;SDS011;56376;53.356;-1.748;2023-06-26T10:17:00;4.93;;;2.15;;
69256;SDS011;56376;53.356;-1.748;2023-06-26T10:19:28;3.10;;;1.42;;
69256;SDS011;56376;53.356;-1.748;2023-06-26T10:21:56;4.03;;;1.67;;
69256;SDS011;56376;53.356;-1.748;2023-06-26T10:24:25;5.05;;;1.60;;
69256;SDS011;56376;53.356;-1.748;2023-06-26T10:26:55;1.88;;;1.20;;
69256;SDS011;56376;53.356;-1.748;2023-06-26T10:29:28;4.57;;;1.15;;
69256;SDS011;56376;53.356;-1.748;2023-06-26T10:31:56;2.53;;;1.17;;
69256;SDS011;56376;53.356;-1.748;2023-06-26T10:34:23;2.15;;;0.93;;
69256;SDS011;56376;53.356;-1.748;2023-06-26T10:36:58;1.38;;;0.90;;
69256;SDS011;56376;53.356;-1.748;2023-06-26T10:39:25;3.15;;;1.42;;
69256;SDS011;56376;53.356;-1.748;2023-06-26T10:41:50;3.67;;;1.33;;
69256;SDS011;56376;53.356;-1.748;2023-06-26T10:44:20;2.55;;;1.02;;
69256;SDS011;56376;53.356;-1.748;2023-06-26T10:49:28;2.17;;;0.90;;
69256;SDS011;56376;53.356;-1.748;2023-06-26T10:52:00;3.60;;;1.02;;
69256;SDS011;56376;53.356;-1.748;2023-06-26T10:54:30;2.58;;;1.48;;
69256;SDS011;56376;53.356;-1.748;2023-06-26T10:56:56;3.33;;;1.38;;
69256;SDS011;56376;53.356;-1.748;2023-06-26T10:59:23;2.50;;;1.00;;
69256;SDS011;56376;53.356;-1.748;2023-06-26T11:02:03;1.13;;;0.85;;
69256;SDS011;56376;53.356;-1.748;2023-06-26T11:04:46;3.42;;;1.30;;
69256;SDS011;56376;53.356;-1.748;2023-06-26T11:10:01;2.60;;;1.13;;
69256;SDS011;56376;53.356;-1.748;2023-06-26T11:12:36;2.75;;;1.08;;
69256;SDS011;56376;53.356;-1.748;2023-06-26T11:15:12;1.35;;;1.02;;
69256;SDS011;56376;53.356;-1.748;2023-06-26T11:17:42;2.70;;;1.75;;
69256;SDS011;56376;53.356;-1.748;2023-06-26T11:20:09;1.95;;;1.10;;
69256;SDS011;56376;53.356;-1.748;2023-06-26T11:22:37;2.03;;;1.10;;
69256;SDS011;56376;53.356;-1.748;2023-06-26T11:25:04;2.15;;;1.20;;
69256;SDS011;56376;53.356;-1.748;2023-06-26T11:27:40;3.20;;;1.42;;
69256;SDS011;56376;53.356;-1.748;2023-06-26T11:30:07;1.55;;;1.00;;
69256;SDS011;56376;53.356;-1.748;2023-06-26T11:32:34;3.85;;;1.70;;
69256;SDS011;56376;53.356;-1.748;2023-06-26T11:35:01;2.85;;;1.25;;
69256;SDS011;56376;53.356;-1.748;2023-06-26T11:37:26;3.15;;;1.10;;
69256;SDS011;56376;53.356;-1.748;2023-06-26T11:39:51;1.98;;;1.30;;
69256;SDS011;56376;53.356;-1.748;2023-06-26T11:42:17;2.20;;;1.40;;
69256;SDS011;56376;53.356;-1.748;2023-06-26T11:44:44;2.00;;;1.13;;
69256;SDS011;56376;53.356;-1.748;2023-06-26T11:47:16;2.10;;;1.35;;
69256;SDS011;56376;53.356;-1.748;2023-06-26T11:52:12;1.58;;;1.00;;
69256;SDS011;56376;53.356;-1.748;2023-06-26T11:54:38;2.08;;;1.35;;
69256;SDS011;56376;53.356;-1.748;2023-06-26T11:57:04;3.60;;;1.50;;
69256;SDS011;56376;53.356;-1.748;2023-06-26T11:59:33;4.28;;;1.90;;
69256;SDS011;56376;53.356;-1.748;2023-06-26T12:02:04;1.60;;;1.10;;
69256;SDS011;56376;53.356;-1.748;2023-06-26T12:04:30;2.08;;;1.02;;
69256;SDS011;56376;53.356;-1.748;2023-06-26T12:06:56;5.07;;;1.30;;
69256;SDS011;56376;53.356;-1.748;2023-06-26T12:09:22;5.35;;;1.63;;
69256;SDS011;56376;53.356;-1.748;2023-06-26T12:11:50;3.67;;;1.85;;
69256;SDS011;56376;53.356;-1.748;2023-06-26T12:14:19;3.17;;;1.55;;
69256;SDS011;56376;53.356;-1.748;2023-06-26T12:16:45;2.28;;;1.25;;
69256;SDS011;56376;53.356;-1.748;2023-06-26T12:19:10;1.55;;;1.10;;
69256;SDS011;56376;53.356;-1.748;2023-06-26T12:24:02;2.10;;;1.27;;
69256;SDS011;56376;53.356;-1.748;2023-06-26T12:26:28;2.88;;;1.20;;
69256;SDS011;56376;53.356;-1.748;2023-06-26T12:31:28;1.35;;;1.10;;
69256;SDS011;56376;53.356;-1.748;2023-06-26T12:33:53;2.33;;;1.20;;
69256;SDS011;56376;53.356;-1.748;2023-06-26T12:36:19;2.38;;;1.52;;
69256;SDS011;56376;53.356;-1.748;2023-06-26T12:38:45;2.20;;;1.25;;
69256;SDS011;56376;53.356;-1.748;2023-06-26T12:41:14;3.20;;;1.60;;
69256;SDS011;56376;53.356;-1.748;2023-06-26T12:43:39;1.85;;;1.23;;
69256;SDS011;56376;53.356;-1.748;2023-06-26T12:46:05;1.90;;;1.20;;
69256;SDS011;56376;53.356;-1.748;2023-06-26T12:51:09;1.30;;;1.13;;
69256;SDS011;56376;53.356;-1.748;2023-06-26T12:53:38;1.85;;;1.40;;
69256;SDS011;56376;53.356;-1.748;2023-06-26T12:56:10;2.10;;;1.17;;
69256;SDS011;56376;53.356;-1.748;2023-06-26T12:58:37;1.58;;;1.10;;
69256;SDS011;56376;53.356;-1.748;2023-06-26T13:01:03;6.90;;;1.50;;
69256;SDS011;56376;53.356;-1.748;2023-06-26T13:03:29;2.25;;;1.50;;
69256;SDS011;56376;53.356;-1.748;2023-06-26T13:05:55;3.70;;;1.33;;
69256;SDS011;56376;53.356;-1.748;2023-06-26T13:08:20;2.90;;;1.55;;
69256;SDS011;56376;53.356;-1.748;2023-06-26T13:10:46;1.40;;;1.10;;
69256;SDS011;56376;53.356;-1.748;2023-06-26T13:13:11;2.78;;;1.20;;
69256;SDS011;56376;53.356;-1.748;2023-06-26T13:15:37;1.90;;;1.00;;
69256;SDS011;56376;53.356;-1.748;2023-06-26T13:18:02;1.67;;;1.00;;
69256;SDS011;56376;53.356;-1.748;2023-06-26T13:20:28;1.80;;;1.38;;
69256;SDS011;56376;53.356;-1.748;2023-06-26T13:22:53;2.00;;;1.30;;
69256;SDS011;56376;53.356;-1.748;2023-06-26T13:25:19;2.10;;;1.20;;
69256;SDS011;56376;53.356;-1.748;2023-06-26T13:27:45;2.10;;;1.13;;
69256;SDS011;56376;53.356;-1.748;2023-06-26T13:30:11;2.30;;;1.15;;
69256;SDS011;56376;53.356;-1.748;2023-06-26T13:32:37;2.08;;;1.27;;
69256;SDS011;56376;53.356;-1.748;2023-06-26T13:35:02;1.48;;;1.10;;
69256;SDS011;56376;53.356;-1.748;2023-06-26T13:37:29;1.70;;;1.02;;
69256;SDS011;56376;53.356;-1.748;2023-06-26T13:39:54;1.85;;;1.00;;
69256;SDS011;56376;53.356;-1.748;2023-06-26T13:42:20;1.52;;;1.05;;
69256;SDS011;56376;53.356;-1.748;2023-06-26T13:44:45;1.23;;;0.90;;
69256;SDS011;56376;53.356;-1.748;2023-06-26T13:47:12;2.20;;;1.15;;
69256;SDS011;56376;53.356;-1.748;2023-06-26T13:49:38;2.45;;;1.27;;
69256;SDS011;56376;53.356;-1.748;2023-06-26T13:52:04;1.45;;;1.02;;
69256;SDS011;56376;53.356;-1.748;2023-06-26T13:54:30;3.03;;;1.02;;
69256;SDS011;56376;53.356;-1.748;2023-06-26T13:56:55;1.35;;;0.93;;
69256;SDS011;56376;53.356;-1.748;2023-06-26T13:59:22;2.60;;;1.10;;
69256;SDS011;56376;53.356;-1.748;2023-06-26T14:01:50;1.55;;;1.20;;
69256;SDS011;56376;53.356;-1.748;2023-06-26T14:04:16;2.55;;;1.38;;
69256;SDS011;56376;53.356;-1.748;2023-06-26T14:06:41;2.65;;;1.17;;
69256;SDS011;56376;53.356;-1.748;2023-06-26T14:09:07;2.08;;;1.02;;
69256;SDS011;56376;53.356;-1.748;2023-06-26T14:11:33;3.33;;;1.00;;
69256;SDS011;56376;53.356;-1.748;2023-06-26T14:14:00;3.28;;;1.25;;
69256;SDS011;56376;53.356;-1.748;2023-06-26T14:16:25;2.55;;;1.38;;
69256;SDS011;56376;53.356;-1.748;2023-06-26T14:18:51;2.50;;;1.10;;
69256;SDS011;56376;53.356;-1.748;2023-06-26T14:21:16;1.35;;;0.77;;
69256;SDS011;56376;53.356;-1.748;2023-06-26T14:23:42;1.13;;;0.75;;
69256;SDS011;56376;53.356;-1.748;2023-06-26T14:26:07;2.22;;;0.93;;
69256;SDS011;56376;53.356;-1.748;2023-06-26T14:28:33;1.23;;;0.90;;
69256;SDS011;56376;53.356;-1.748;2023-06-26T14:30:58;2.42;;;1.08;;
69256;SDS011;56376;53.356;-1.748;2023-06-26T14:33:24;3.22;;;1.70;;
69256;SDS011;56376;53.356;-1.748;2023-06-26T14:35:49;2.15;;;0.98;;
69256;SDS011;56376;53.356;-1.748;2023-06-26T14:38:14;3.33;;;1.13;;
69256;SDS011;56376;53.356;-1.748;2023-06-26T14:40:40;1.60;;;0.95;;
69256;SDS011;56376;53.356;-1.748;2023-06-26T14:43:05;1.92;;;1.25;;
69256;SDS011;56376;53.356;-1.748;2023-06-26T14:45:31;3.25;;;1.33;;
69256;SDS011;56376;53.356;-1.748;2023-06-26T14:47:56;1.73;;;0.98;;
69256;SDS011;56376;53.356;-1.748;2023-06-26T14:50:21;1.98;;;1.08;;
69256;SDS011;56376;53.356;-1.748;2023-06-26T14:52:47;2.72;;;1.23;;